Time;durP1;ratioP1;P1;durP2;ratioP2;P2;SDS_P1;SDS_P2;PMS_P1;PMS_P2;Temp;Humidity;BMP_temperature;BMP_pressure;BME280_temperature;BME280_humidity;BME280_pressure;Samples;Min_cycle;Max_cycle;Signal;HPM_P1;HPM_P2
2023/01/13 00:02:22;;;;;;;2.92;0.73;;;9.10;99.90;;;;;;5093802;28;20031;-35
2023/01/13 00:04:47;;;;;;;2.08;0.70;;;9.10;99.90;;;;;;5093580;28;20489;-35
2023/01/13 00:07:13;;;;;;;1.17;0.70;;;9.10;99.90;;;;;;5093243;28;20081;-35
2023/01/13 00:09:38;;;;;;;3.75;0.70;;;9.10;99.90;;;;;;5093973;28;20024;-35
2023/01/13 00:12:05;;;;;;;4.78;0.80;;;9.10;99.90;;;;;;5093911;28;20036;-35
2023/01/13 00:14:35;;;;;;;2.65;0.90;;;9.10;99.90;;;;;;5093334;28;20069;-35
2023/01/13 00:17:01;;;;;;;0.82;0.50;;;9.10;99.90;;;;;;5092943;28;20020;-35
2023/01/13 00:19:27;;;;;;;2.03;0.60;;;9.10;99.90;;;;;;5094363;28;20031;-35
2023/01/13 00:21:52;;;;;;;2.65;0.68;;;9.10;99.90;;;;;;5093226;28;20028;-35
2023/01/13 00:24:18;;;;;;;1.70;0.77;;;9.10;99.90;;;;;;5091709;28;20095;-34
2023/01/13 00:26:44;;;;;;;1.35;0.65;;;9.10;99.90;;;;;;5093380;28;20020;-34
2023/01/13 00:29:09;;;;;;;2.63;0.80;;;9.10;99.90;;;;;;5093403;28;20482;-35
2023/01/13 00:31:35;;;;;;;3.20;0.70;;;9.10;99.90;;;;;;5093321;28;20023;-35
2023/01/13 00:34:01;;;;;;;1.85;0.70;;;9.10;99.90;;;;;;5092900;28;20474;-34
2023/01/13 00:36:27;;;;;;;1.88;0.60;;;9.10;99.90;;;;;;5094110;28;20020;-35
2023/01/13 00:38:53;;;;;;;3.33;0.80;;;9.10;99.90;;;;;;5092606;28;20428;-34
2023/01/13 00:41:21;;;;;;;2.97;0.80;;;9.10;99.90;;;;;;5092848;28;20024;-35
2023/01/13 00:43:47;;;;;;;3.53;0.73;;;9.10;99.90;;;;;;5093178;28;20016;-35
2023/01/13 00:46:15;;;;;;;1.95;0.80;;;9.10;99.90;;;;;;5092521;28;20392;-34
2023/01/13 00:48:41;;;;;;;3.42;0.80;;;9.10;99.90;;;;;;5092596;28;20040;-35
2023/01/13 00:51:10;;;;;;;2.53;0.77;;;9.10;99.90;;;;;;5092602;28;20371;-35
2023/01/13 00:53:41;;;;;;;2.00;0.68;;;9.10;99.90;;;;;;5092857;28;20020;-35
2023/01/13 00:56:10;;;;;;;4.05;1.05;;;9.10;99.90;;;;;;5093003;28;20058;-34
2023/01/13 00:58:36;;;;;;;2.20;0.70;;;9.10;99.90;;;;;;5093141;28;20036;-35
2023/01/13 01:01:04;;;;;;;1.90;0.60;;;9.10;99.90;;;;;;5094459;28;20118;-35
2023/01/13 01:03:29;;;;;;;2.10;0.70;;;9.10;99.90;;;;;;5092895;28;20035;-34
2023/01/13 01:05:56;;;;;;;3.47;0.75;;;9.10;99.90;;;;;;5092031;28;20389;-35
2023/01/13 01:08:22;;;;;;;1.63;0.70;;;9.10;99.90;;;;;;5092652;28;20441;-35
2023/01/13 01:10:48;;;;;;;3.30;0.73;;;9.10;99.90;;;;;;5092456;28;20051;-35
2023/01/13 01:13:16;;;;;;;1.38;0.50;;;9.10;99.90;;;;;;5093018;28;20078;-35
2023/01/13 01:15:42;;;;;;;4.13;1.33;;;9.10;99.90;;;;;;5095387;28;20034;-34
2023/01/13 01:18:08;;;;;;;1.73;0.60;;;9.10;99.90;;;;;;5092901;28;20066;-35
2023/01/13 01:20:35;;;;;;;1.65;0.60;;;9.10;99.90;;;;;;5093782;28;20028;-35
2023/01/13 01:23:00;;;;;;;5.30;1.00;;;9.10;99.90;;;;;;5093178;28;20032;-35
2023/01/13 01:25:26;;;;;;;4.05;0.52;;;9.10;99.90;;;;;;5092151;28;20485;-35
2023/01/13 01:27:52;;;;;;;1.58;0.60;;;9.10;99.90;;;;;;5094032;28;20470;-34
2023/01/13 01:30:18;;;;;;;3.58;0.80;;;9.10;99.90;;;;;;5091889;28;20481;-35
2023/01/13 01:32:44;;;;;;;1.77;0.60;;;9.10;99.90;;;;;;5091930;28;20024;-35
2023/01/13 01:35:09;;;;;;;1.98;0.77;;;9.10;99.90;;;;;;5091803;28;20032;-34
2023/01/13 01:37:35;;;;;;;3.58;0.55;;;9.10;99.90;;;;;;5091411;28;20363;-34
2023/01/13 01:40:00;;;;;;;1.83;0.60;;;9.10;99.90;;;;;;5091865;28;20050;-35
2023/01/13 01:45:13;;;;;;;;;;;9.10;99.90;;;;;;5092053;28;20031;-35
2023/01/13 01:47:39;;;;;;;1.52;0.60;;;9.10;99.90;;;;;;5092263;28;20281;-35
2023/01/13 01:50:05;;;;;;;1.98;0.60;;;9.10;99.90;;;;;;5093483;28;20024;-34
2023/01/13 01:52:36;;;;;;;2.13;0.65;;;9.10;99.90;;;;;;5092349;28;20024;-35
2023/01/13 01:55:18;;;;;;;3.05;0.93;;;9.10;99.90;;;;;;5092693;28;20055;-35
2023/01/13 01:58:00;;;;;;;2.08;0.70;;;9.10;99.90;;;;;;5092451;28;20028;-34
2023/01/13 02:00:27;;;;;;;1.98;0.63;;;9.10;99.90;;;;;;5092373;28;20020;-34
2023/01/13 02:02:54;;;;;;;1.33;0.45;;;9.10;99.90;;;;;;5091552;28;20098;-34
2023/01/13 02:05:20;;;;;;;3.22;0.70;;;9.10;99.90;;;;;;5091605;28;20028;-35
2023/01/13 02:07:48;;;;;;;1.00;0.50;;;9.10;99.90;;;;;;5091156;28;20362;-35
2023/01/13 02:10:18;;;;;;;0.77;0.40;;;9.10;99.90;;;;;;5093434;28;20028;-34
2023/01/13 02:12:44;;;;;;;2.90;0.70;;;9.10;99.90;;;;;;5091649;28;20024;-35
2023/01/13 02:15:31;;;;;;;2.83;0.80;;;9.10;99.90;;;;;;5091414;28;20430;-34
2023/01/13 02:18:15;;;;;;;2.20;0.60;;;9.10;99.90;;;;;;5091166;28;20028;-35
2023/01/13 02:21:01;;;;;;;1.13;0.60;;;9.10;99.90;;;;;;5093056;28;20016;-35
2023/01/13 02:27:12;;;;;;;2.20;0.50;;;9.10;99.90;;;;;;5091328;28;20042;-36
2023/01/13 02:33:06;;;;;;;2.03;0.68;;;9.10;99.90;;;;;;5091413;28;20402;-35
2023/01/13 02:35:41;;;;;;;1.70;0.60;;;9.10;99.90;;;;;;5090969;28;20111;-35
2023/01/13 02:38:10;;;;;;;1.58;0.80;;;9.10;99.90;;;;;;5090859;28;20052;-35
2023/01/13 02:40:54;;;;;;;1.90;0.60;;;9.10;99.90;;;;;;5091077;28;20103;-34
2023/01/13 02:46:21;;;;;;;3.85;0.80;;;9.10;99.90;;;;;;5091110;28;20031;-35
2023/01/13 02:48:50;;;;;;;2.60;0.70;;;9.10;99.90;;;;;;5090962;28;20028;-35
2023/01/13 02:51:21;;;;;;;4.78;0.70;;;9.10;99.90;;;;;;5090980;28;20119;-34
2023/01/13 02:53:52;;;;;;;2.03;0.70;;;9.10;99.90;;;;;;5091863;28;20024;-34
2023/01/13 02:56:21;;;;;;;1.42;0.73;;;9.10;99.90;;;;;;5090784;28;20024;-35
2023/01/13 02:58:49;;;;;;;3.70;0.80;;;9.10;99.90;;;;;;5095323;28;20032;-35
2023/01/13 03:01:15;;;;;;;3.17;0.70;;;9.10;99.90;;;;;;5094632;28;20024;-35
2023/01/13 03:03:42;;;;;;;1.38;0.55;;;9.10;99.90;;;;;;5095992;28;20056;-35
2023/01/13 03:06:17;;;;;;;2.50;0.60;;;9.10;99.90;;;;;;5095775;28;20386;-34
2023/01/13 03:08:48;;;;;;;;;;;9.10;99.90;;;;;;5097132;28;20456;-35
2023/01/13 03:11:16;;;;;;;0.70;0.30;;;9.10;99.90;;;;;;5094616;28;20373;-35
2023/01/13 03:13:51;;;;;;;1.80;0.60;;;9.10;99.90;;;;;;5094586;28;20028;-35
2023/01/13 03:16:24;;;;;;;1.48;0.70;;;9.10;99.90;;;;;;5094322;28;20028;-35
2023/01/13 03:18:54;;;;;;;2.47;0.60;;;9.10;99.90;;;;;;5094268;28;20501;-35
2023/01/13 03:21:47;;;;;;;4.35;0.90;;;9.10;99.90;;;;;;5094793;28;20099;-34
2023/01/13 03:24:19;;;;;;;2.15;0.70;;;9.10;99.90;;;;;;5094442;28;20024;-35
2023/01/13 03:27:03;;;;;;;3.67;0.93;;;9.10;99.90;;;;;;5094016;28;20016;-35
2023/01/13 03:29:45;;;;;;;1.83;0.75;;;9.10;99.90;;;;;;5094137;28;20051;-34
2023/01/13 03:32:23;;;;;;;2.28;0.70;;;9.10;99.90;;;;;;5094199;28;20474;-35
2023/01/13 03:34:52;;;;;;;4.07;0.80;;;9.00;99.90;;;;;;5094539;28;20107;-35
2023/01/13 03:37:25;;;;;;;2.83;0.85;;;9.10;99.90;;;;;;5093892;28;20486;-35
2023/01/13 03:39:56;;;;;;;3.28;0.60;;;9.10;99.90;;;;;;5094806;28;20036;-34
2023/01/13 03:42:27;;;;;;;3.85;0.77;;;9.00;99.90;;;;;;5094059;28;20043;-35
2023/01/13 03:45:15;;;;;;;4.20;0.90;;;9.10;99.90;;;;;;5093941;28;20099;-34
2023/01/13 03:47:52;;;;;;;1.92;0.68;;;9.10;99.90;;;;;;5094081;28;20039;-34
2023/01/13 03:50:24;;;;;;;2.15;0.68;;;9.10;99.90;;;;;;5093533;28;20390;-35
2023/01/13 03:52:55;;;;;;;2.80;0.90;;;9.10;99.90;;;;;;5093920;28;20032;-34
2023/01/13 03:55:35;;;;;;;3.17;0.70;;;9.10;99.90;;;;;;5093840;28;20028;-35
2023/01/13 03:58:24;;;;;;;2.25;0.80;;;9.00;99.90;;;;;;5093849;28;20032;-34
2023/01/13 04:00:59;;;;;;;1.73;0.52;;;9.10;99.90;;;;;;5092250;28;20040;-35
2023/01/13 04:03:42;;;;;;;3.72;0.80;;;9.10;99.90;;;;;;5093590;28;20020;-35
2023/01/13 04:06:14;;;;;;;1.58;0.52;;;9.10;99.90;;;;;;5093341;28;20020;-35
2023/01/13 04:08:48;;;;;;;2.88;0.70;;;9.10;99.90;;;;;;5092953;28;20020;-35
2023/01/13 04:11:20;;;;;;;1.50;0.75;;;9.10;99.90;;;;;;5093492;28;20103;-35
2023/01/13 04:13:48;;;;;;;1.55;0.50;;;9.10;99.90;;;;;;5093417;28;20110;-35
2023/01/13 04:16:14;;;;;;;1.52;0.68;;;9.00;99.90;;;;;;5093462;28;20476;-35
2023/01/13 04:18:40;;;;;;;1.13;0.60;;;9.10;99.90;;;;;;5093108;28;20074;-35
2023/01/13 04:21:06;;;;;;;1.85;0.68;;;9.10;99.90;;;;;;5093311;28;20109;-34
2023/01/13 04:23:32;;;;;;;0.98;0.55;;;9.10;99.90;;;;;;5093117;28;20023;-34
2023/01/13 04:25:58;;;;;;;2.72;0.75;;;9.10;99.90;;;;;;5093009;28;20032;-35
2023/01/13 04:28:24;;;;;;;3.00;0.95;;;9.10;99.90;;;;;;5093046;28;20039;-35
2023/01/13 04:30:50;;;;;;;4.60;0.75;;;9.10;99.90;;;;;;5093829;28;20114;-35
2023/01/13 04:33:18;;;;;;;2.20;0.50;;;9.10;99.90;;;;;;5093545;28;20481;-34
2023/01/13 04:35:45;;;;;;;2.15;0.63;;;9.10;99.90;;;;;;5093832;28;20054;-35
2023/01/13 04:38:13;;;;;;;1.80;0.60;;;9.10;99.90;;;;;;5092561;28;20027;-34
2023/01/13 04:40:40;;;;;;;1.77;0.70;;;9.10;99.90;;;;;;5092900;28;20051;-35
2023/01/13 04:43:06;;;;;;;2.65;0.70;;;9.10;99.90;;;;;;5093484;28;20053;-35
2023/01/13 04:45:32;;;;;;;3.08;0.68;;;9.10;99.90;;;;;;5093763;28;20433;-36
2023/01/13 04:47:58;;;;;;;4.10;0.63;;;9.10;99.90;;;;;;5093246;28;20077;-35
2023/01/13 04:50:24;;;;;;;0.60;0.40;;;9.10;99.90;;;;;;5092667;28;20030;-36
2023/01/13 04:52:51;;;;;;;3.95;0.70;;;9.10;99.90;;;;;;5092879;28;20020;-35
2023/01/13 04:55:18;;;;;;;3.72;0.60;;;9.10;99.90;;;;;;5093762;28;20020;-35
2023/01/13 04:57:43;;;;;;;1.00;0.60;;;9.10;99.90;;;;;;5093070;28;20082;-35
2023/01/13 05:00:11;;;;;;;0.75;0.45;;;9.10;99.90;;;;;;5092511;28;20016;-36
2023/01/13 05:02:37;;;;;;;3.20;0.63;;;9.10;99.90;;;;;;5092593;28;20144;-35
2023/01/13 05:05:03;;;;;;;1.90;0.57;;;9.10;99.90;;;;;;5092383;28;20032;-35
2023/01/13 05:07:29;;;;;;;1.25;0.43;;;9.10;99.90;;;;;;5092124;28;20036;-35
2023/01/13 05:09:54;;;;;;;1.70;0.57;;;9.10;99.90;;;;;;5092734;28;20154;-35
2023/01/13 05:17:49;;;;;;;;;;;9.10;99.90;;;;;;5092654;28;20046;-35
2023/01/13 05:20:14;;;;;;;2.83;0.68;;;9.10;99.90;;;;;;5091360;28;19904;-35
2023/01/13 05:25:26;;;;;;;2.63;0.60;;;9.10;99.90;;;;;;5092059;28;20557;-36
2023/01/13 05:27:54;;;;;;;1.27;0.52;;;9.00;99.90;;;;;;5091761;28;20032;-35
2023/01/13 05:30:26;;;;;;;0.95;0.50;;;9.10;99.90;;;;;;5092097;28;20050;-35
2023/01/13 05:32:51;;;;;;;1.20;0.40;;;9.10;99.90;;;;;;5091891;28;20024;-35
2023/01/13 05:35:17;;;;;;;1.20;0.40;;;9.00;99.90;;;;;;5091883;28;20024;-35
2023/01/13 05:37:44;;;;;;;2.30;0.60;;;9.00;99.90;;;;;;5091800;28;20032;-34
2023/01/13 05:43:19;;;;;;;1.65;0.60;;;9.10;99.90;;;;;;5092032;28;20123;-34
2023/01/13 05:45:56;;;;;;;0.82;0.40;;;9.10;99.90;;;;;;5092591;28;20047;-35
2023/01/13 05:48:25;;;;;;;1.00;0.47;;;9.00;99.90;;;;;;5092305;28;20042;-36
2023/01/13 05:50:52;;;;;;;2.58;0.60;;;9.10;99.90;;;;;;5091491;28;20032;-34
2023/01/13 05:53:19;;;;;;;1.48;0.57;;;9.00;99.90;;;;;;5093580;28;20024;-35
2023/01/13 05:55:45;;;;;;;1.63;0.60;;;9.10;99.90;;;;;;5091477;28;20055;-34
2023/01/13 05:58:13;;;;;;;1.50;0.63;;;9.10;99.90;;;;;;5092567;28;20028;-34
2023/01/13 06:00:38;;;;;;;2.63;0.57;;;9.10;99.90;;;;;;5091469;28;20474;-35
2023/01/13 06:03:04;;;;;;;2.13;0.75;;;9.00;99.90;;;;;;5091596;28;20020;-35
2023/01/13 06:05:30;;;;;;;1.25;0.55;;;9.10;99.90;;;;;;5091364;28;20045;-35
2023/01/13 06:08:00;;;;;;;1.58;0.90;;;9.10;99.90;;;;;;5093528;28;20024;-35
2023/01/13 06:10:27;;;;;;;1.98;0.80;;;9.00;99.90;;;;;;5092435;28;20029;-35
2023/01/13 06:12:53;;;;;;;1.38;0.65;;;9.00;99.90;;;;;;5094211;28;20085;-35
2023/01/13 06:15:19;;;;;;;1.35;0.70;;;9.00;99.90;;;;;;5092133;28;20474;-35
2023/01/13 06:17:46;;;;;;;1.48;0.60;;;9.10;99.90;;;;;;5093015;28;20150;-35
2023/01/13 06:20:12;;;;;;;1.08;0.47;;;9.00;99.90;;;;;;5091148;28;20016;-34
2023/01/13 06:22:41;;;;;;;1.02;0.40;;;9.10;99.90;;;;;;5091308;28;20020;-34
2023/01/13 06:25:12;;;;;;;1.77;0.40;;;9.00;99.90;;;;;;5091285;28;20027;-35
2023/01/13 06:27:39;;;;;;;1.05;0.50;;;9.10;99.90;;;;;;5091016;28;20023;-35
2023/01/13 06:30:05;;;;;;;1.65;0.60;;;9.10;99.90;;;;;;5091818;28;20024;-35
2023/01/13 06:32:37;;;;;;;2.00;0.60;;;9.10;99.90;;;;;;5095416;28;20020;-35
2023/01/13 06:35:08;;;;;;;0.50;0.30;;;9.10;99.90;;;;;;5096249;28;20066;-35
2023/01/13 06:37:34;;;;;;;2.60;0.50;;;9.10;99.90;;;;;;5095382;28;20031;-35
2023/01/13 06:40:02;;;;;;;0.75;0.50;;;9.10;99.90;;;;;;5096155;28;20024;-34
2023/01/13 06:45:16;;;;;;;2.42;0.73;;;9.10;99.90;;;;;;5095063;28;20035;-35
2023/01/13 06:47:42;;;;;;;1.42;0.50;;;9.10;99.90;;;;;;5094845;28;20028;-34
2023/01/13 06:50:09;;;;;;;1.40;0.60;;;9.10;99.90;;;;;;5094833;28;20024;-35
2023/01/13 06:52:35;;;;;;;2.45;0.60;;;9.10;99.90;;;;;;5094951;28;20462;-35
2023/01/13 06:55:01;;;;;;;1.00;0.60;;;9.00;99.90;;;;;;5094942;28;20039;-35
2023/01/13 06:57:27;;;;;;;2.58;0.88;;;9.10;99.90;;;;;;5094435;28;20034;-35
2023/01/13 06:59:53;;;;;;;2.05;0.60;;;9.10;99.90;;;;;;5094668;28;20035;-35
2023/01/13 07:02:19;;;;;;;6.20;0.75;;;9.10;99.90;;;;;;5095327;28;20020;-35
2023/01/13 07:04:45;;;;;;;1.35;0.60;;;9.00;99.90;;;;;;5094849;28;20101;-35
2023/01/13 07:07:12;;;;;;;1.60;0.70;;;9.10;99.90;;;;;;5094958;28;20020;-34
2023/01/13 07:09:38;;;;;;;1.00;0.60;;;9.10;99.90;;;;;;5095578;28;20394;-34
2023/01/13 07:12:04;;;;;;;1.73;0.80;;;9.10;99.90;;;;;;5095894;28;20100;-34
2023/01/13 07:17:14;;;;;;;1.17;0.50;;;9.00;99.90;;;;;;5094812;28;20057;-35
2023/01/13 07:19:39;;;;;;;2.15;0.80;;;9.00;99.90;;;;;;5095563;28;20028;-35
2023/01/13 07:22:05;;;;;;;1.63;0.60;;;9.10;99.90;;;;;;5094277;28;20367;-35
2023/01/13 07:24:31;;;;;;;0.88;0.50;;;9.10;99.90;;;;;;5095051;28;20028;-35
2023/01/13 07:26:56;;;;;;;1.15;0.50;;;9.00;99.90;;;;;;5095979;28;20020;-35
2023/01/13 07:29:22;;;;;;;0.63;0.40;;;9.10;99.90;;;;;;5094204;28;20103;-34
2023/01/13 07:31:48;;;;;;;2.53;0.77;;;9.10;99.90;;;;;;5095092;28;20424;-34
2023/01/13 07:34:13;;;;;;;1.13;0.65;;;9.10;99.90;;;;;;5095689;28;20085;-35
2023/01/13 07:36:40;;;;;;;1.38;0.55;;;9.10;99.90;;;;;;5094096;28;20085;-35
2023/01/13 07:39:06;;;;;;;1.70;0.60;;;9.10;99.90;;;;;;5094890;28;20042;-35
2023/01/13 07:44:16;;;;;;;3.83;0.63;;;9.10;99.90;;;;;;5094353;28;20055;-35
2023/01/13 07:46:41;;;;;;;1.05;0.50;;;9.10;99.90;;;;;;5094765;28;20055;-36
2023/01/13 07:49:07;;;;;;;0.88;0.68;;;9.10;99.90;;;;;;5094243;28;20036;-34
2023/01/13 07:51:39;;;;;;;0.80;0.60;;;9.00;99.90;;;;;;5094064;28;20107;-35
2023/01/13 07:54:05;;;;;;;0.68;0.50;;;9.10;99.90;;;;;;5093845;28;20031;-35
2023/01/13 07:56:32;;;;;;;1.25;0.68;;;9.10;99.90;;;;;;5093308;28;20421;-35
2023/01/13 07:59:01;;;;;;;1.15;0.60;;;9.10;99.90;;;;;;5092745;28;20095;-35
2023/01/13 08:01:27;;;;;;;1.67;0.60;;;9.10;99.90;;;;;;5095229;28;20051;-35
2023/01/13 08:03:55;;;;;;;2.05;0.50;;;9.10;99.90;;;;;;5093544;28;20031;-34
2023/01/13 08:06:20;;;;;;;0.80;0.50;;;9.00;99.90;;;;;;5093327;28;20401;-35
2023/01/13 08:08:46;;;;;;;0.55;0.40;;;9.10;99.90;;;;;;5093487;28;20031;-35
2023/01/13 08:11:12;;;;;;;2.33;0.57;;;9.10;99.90;;;;;;5094422;28;20028;-35
2023/01/13 08:13:38;;;;;;;1.25;0.60;;;9.10;99.90;;;;;;5093566;28;20474;-34
2023/01/13 08:16:06;;;;;;;1.55;0.50;;;9.00;99.90;;;;;;5093581;28;20036;-35
2023/01/13 08:18:33;;;;;;;1.08;0.50;;;9.10;99.90;;;;;;5094211;28;20579;-34
2023/01/13 08:21:08;;;;;;;0.60;0.50;;;9.10;99.90;;;;;;5093554;28;20024;-35
2023/01/13 08:23:34;;;;;;;1.30;0.52;;;9.10;99.90;;;;;;5093636;28;20035;-35
2023/01/13 08:26:04;;;;;;;1.75;0.40;;;9.10;99.90;;;;;;5093354;28;20051;-34
2023/01/13 08:28:30;;;;;;;1.02;0.40;;;9.10;99.90;;;;;;5093080;28;20020;-35
2023/01/13 08:31:03;;;;;;;1.67;0.63;;;9.10;99.90;;;;;;5092974;28;20485;-35
2023/01/13 08:33:30;;;;;;;1.77;0.50;;;9.10;99.90;;;;;;5093274;28;20028;-34
2023/01/13 08:35:55;;;;;;;1.23;0.55;;;9.10;99.90;;;;;;5094386;28;20024;-35
2023/01/13 08:38:21;;;;;;;1.15;0.40;;;9.10;99.90;;;;;;5093012;28;20515;-34
2023/01/13 08:40:47;;;;;;;1.55;0.60;;;9.10;99.90;;;;;;5093440;28;20069;-35
2023/01/13 08:43:13;;;;;;;1.10;0.50;;;9.10;99.90;;;;;;5093482;28;20474;-35
2023/01/13 08:45:38;;;;;;;1.20;0.50;;;9.10;99.90;;;;;;5092916;28;20035;-34
2023/01/13 08:48:05;;;;;;;2.13;0.63;;;9.10;99.90;;;;;;5092692;28;20028;-35
2023/01/13 08:50:31;;;;;;;0.60;0.50;;;9.10;99.90;;;;;;5093085;28;20028;-35
2023/01/13 08:52:57;;;;;;;1.67;0.50;;;9.10;99.90;;;;;;5092671;28;20473;-35
2023/01/13 08:55:23;;;;;;;1.70;0.50;;;9.10;99.90;;;;;;5092536;28;20359;-36
2023/01/13 08:57:48;;;;;;;1.45;0.50;;;9.10;99.90;;;;;;5092227;28;20032;-34
2023/01/13 09:00:15;;;;;;;2.35;0.60;;;9.10;99.90;;;;;;5093156;28;20035;-34
2023/01/13 09:02:42;;;;;;;1.55;0.52;;;9.10;99.90;;;;;;5092898;28;20035;-35
2023/01/13 09:05:09;;;;;;;1.08;0.50;;;9.10;99.90;;;;;;5092659;28;20045;-36
2023/01/13 09:07:37;;;;;;;0.55;0.43;;;9.10;99.90;;;;;;5092906;28;20547;-34
2023/01/13 09:10:04;;;;;;;0.93;0.50;;;9.10;99.90;;;;;;5092418;28;20073;-35
2023/01/13 09:15:17;;;;;;;0.90;0.65;;;9.10;99.90;;;;;;5092283;28;20031;-34
2023/01/13 09:17:43;;;;;;;2.05;0.60;;;9.10;99.90;;;;;;5092932;28;20036;-34
2023/01/13 09:20:10;;;;;;;1.00;0.60;;;9.10;99.90;;;;;;5092341;28;20031;-35
2023/01/13 09:22:36;;;;;;;0.85;0.50;;;9.10;99.90;;;;;;5092525;28;20031;-35
2023/01/13 09:25:03;;;;;;;1.33;0.63;;;9.10;99.90;;;;;;5092047;28;20050;-34
2023/01/13 09:27:28;;;;;;;1.20;0.40;;;9.10;99.90;;;;;;5091710;28;20080;-34
2023/01/13 09:29:54;;;;;;;1.02;0.50;;;9.10;99.90;;;;;;5092557;28;20490;-34
2023/01/13 09:32:19;;;;;;;0.88;0.60;;;9.10;99.90;;;;;;5092385;28;20024;-34
2023/01/13 09:35:00;;;;;;;0.70;0.50;;;9.10;99.90;;;;;;5093621;28;20059;-34
2023/01/13 09:37:33;;;;;;;0.70;0.50;;;9.10;99.90;;;;;;5091952;28;20020;-35
2023/01/13 09:39:59;;;;;;;1.20;0.57;;;9.10;99.90;;;;;;5091988;28;20046;-35
2023/01/13 09:45:31;;;;;;;1.08;0.70;;;9.10;99.90;;;;;;5093581;28;20080;-34
2023/01/13 09:48:33;;;;;;;0.93;0.68;;;9.10;99.90;;;;;;5092417;28;20021;-35
2023/01/13 09:51:04;;;;;;;1.90;0.80;;;9.10;99.90;;;;;;5090714;28;20024;-34
2023/01/13 09:53:38;;;;;;;0.68;0.52;;;9.10;99.90;;;;;;5092536;28;20024;-34
2023/01/13 09:56:04;;;;;;;1.10;0.60;;;9.10;99.90;;;;;;5092142;28;20534;-35
2023/01/13 09:58:31;;;;;;;1.10;0.70;;;9.10;99.90;;;;;;5091398;28;20032;-35
2023/01/13 10:01:02;;;;;;;1.10;0.82;;;9.10;99.90;;;;;;5091563;28;20067;-35
2023/01/13 10:03:30;;;;;;;0.70;0.60;;;9.10;99.90;;;;;;5091584;28;20028;-35
2023/01/13 10:06:19;;;;;;;1.73;0.63;;;9.10;99.90;;;;;;5092672;28;20024;-35
2023/01/13 10:08:47;;;;;;;1.48;0.77;;;9.10;99.90;;;;;;5090180;28;20044;-35
2023/01/13 10:14:17;;;;;;;1.33;0.70;;;9.10;99.90;;;;;;5093686;28;20062;-35
2023/01/13 10:17:01;;;;;;;0.70;0.60;;;9.10;99.90;;;;;;5091712;28;20107;-35
2023/01/13 10:20:08;;;;;;;1.15;0.63;;;9.10;99.90;;;;;;5093323;28;20504;-35
2023/01/13 10:23:10;;;;;;;0.50;0.50;;;9.10;99.90;;;;;;5087384;28;20103;-35
2023/01/13 10:26:07;;;;;;;0.95;0.57;;;9.10;99.90;;;;;;5091905;28;20028;-35
2023/01/13 10:28:32;;;;;;;1.00;0.68;;;9.20;99.90;;;;;;5091263;28;20069;-35
2023/01/13 10:30:59;;;;;;;1.45;0.80;;;9.20;99.90;;;;;;5091982;28;20032;-35
2023/01/13 10:33:28;;;;;;;1.40;0.80;;;9.20;99.90;;;;;;5092088;28;20042;-35
2023/01/13 10:35:59;;;;;;;1.92;0.90;;;9.30;99.90;;;;;;5091425;28;20078;-35
2023/01/13 10:38:34;;;;;;;2.95;1.33;;;9.30;99.90;;;;;;5090979;28;20024;-35
2023/01/13 10:41:04;;;;;;;2.60;1.10;;;9.30;99.90;;;;;;5091925;28;20055;-35
2023/01/13 10:43:30;;;;;;;2.00;1.20;;;9.30;99.90;;;;;;5092418;28;20035;-35
2023/01/13 10:46:10;;;;;;;4.32;1.20;;;9.30;99.90;;;;;;5090944;28;20024;-35
2023/01/13 10:48:37;;;;;;;1.25;1.00;;;9.30;99.90;;;;;;5092341;28;20076;-35
2023/01/13 10:51:17;;;;;;;1.83;0.93;;;9.30;99.90;;;;;;5091077;28;20024;-35
2023/01/13 10:53:57;;;;;;;0.95;0.63;;;9.30;99.90;;;;;;5091176;28;20024;-34
2023/01/13 10:56:33;;;;;;;2.10;0.80;;;9.30;99.90;;;;;;5090730;28;20142;-35
2023/01/13 10:59:21;;;;;;;1.23;0.80;;;9.30;99.90;;;;;;5093636;28;20089;-35
2023/01/13 11:02:07;;;;;;;1.30;0.70;;;9.30;99.90;;;;;;5093916;28;20024;-35
2023/01/13 11:04:38;;;;;;;1.40;1.00;;;9.30;99.90;;;;;;5092579;28;20034;-35
2023/01/13 11:07:15;;;;;;;1.50;0.88;;;9.30;99.90;;;;;;5093267;28;20057;-35
2023/01/13 11:09:41;;;;;;;1.02;0.80;;;9.30;99.90;;;;;;5091097;28;20036;-35
2023/01/13 11:12:30;;;;;;;1.67;0.70;;;9.30;99.90;;;;;;5090845;28;20036;-35
2023/01/13 11:15:00;;;;;;;1.55;0.93;;;9.20;99.90;;;;;;5092487;28;20043;-34
2023/01/13 11:17:40;;;;;;;0.85;0.77;;;9.20;99.90;;;;;;5090966;28;20031;-34
2023/01/13 11:20:30;;;;;;;1.95;0.65;;;9.30;99.90;;;;;;5094472;28;20024;-34
2023/01/13 11:23:00;;;;;;;1.58;0.70;;;9.30;99.90;;;;;;5094771;28;20020;-35
2023/01/13 11:25:32;;;;;;;1.02;0.63;;;9.30;99.90;;;;;;5094977;28;20503;-34
2023/01/13 11:28:20;;;;;;;3.47;0.80;;;9.30;99.90;;;;;;5095538;28;20500;-34
2023/01/13 11:31:18;;;;;;;1.92;1.00;;;9.20;99.90;;;;;;5094349;28;20501;-35
2023/01/13 11:33:53;;;;;;;2.20;0.90;;;9.20;99.90;;;;;;5092679;28;20379;-35
2023/01/13 11:36:37;;;;;;;1.35;0.80;;;9.20;99.90;;;;;;5093920;28;20478;-35
2023/01/13 11:39:12;;;;;;;2.20;0.95;;;9.20;99.90;;;;;;5095262;28;20028;-35
2023/01/13 11:44:57;;;;;;;1.67;0.88;;;9.20;99.90;;;;;;5094991;28;20401;-34
2023/01/13 11:47:25;;;;;;;2.00;0.90;;;9.20;99.90;;;;;;5094306;28;20024;-35
2023/01/13 11:49:51;;;;;;;4.55;2.13;;;9.20;99.90;;;;;;5094156;28;20478;-34
2023/01/13 11:52:46;;;;;;;4.40;2.20;;;9.20;99.90;;;;;;5093798;28;20085;-35
2023/01/13 11:55:18;;;;;;;3.47;1.52;;;9.20;99.90;;;;;;5094980;28;20023;-35
2023/01/13 11:57:54;;;;;;;1.58;1.13;;;9.20;99.90;;;;;;5095604;28;20067;-35
2023/01/13 12:00:35;;;;;;;2.90;1.30;;;9.20;99.90;;;;;;5095125;28;20020;-35
2023/01/13 12:03:16;;;;;;;2.65;1.52;;;9.20;99.90;;;;;;5093708;28;20023;-35
2023/01/13 12:05:47;;;;;;;2.97;1.20;;;9.20;99.90;;;;;;5093480;28;20310;-35
2023/01/13 12:09:00;;;;;;;1.80;1.23;;;9.20;99.90;;;;;;5093383;28;20049;-35
2023/01/13 12:11:28;;;;;;;2.55;1.40;;;9.20;99.90;;;;;;5091188;28;20509;-35
2023/01/13 12:14:23;;;;;;;2.13;1.20;;;9.30;99.90;;;;;;5094579;28;20068;-35
2023/01/13 12:16:49;;;;;;;;;;;9.20;99.90;;;;;;5094065;28;20427;-35
2023/01/13 12:19:23;;;;;;;2.88;1.27;;;9.30;99.90;;;;;;5093293;28;20273;-35
2023/01/13 12:22:09;;;;;;;3.75;1.80;;;9.30;99.90;;;;;;5094066;28;20385;-35
2023/01/13 12:24:53;;;;;;;4.93;1.50;;;9.30;99.90;;;;;;5094134;28;20025;-35
2023/01/13 12:27:28;;;;;;;3.28;1.30;;;9.30;99.90;;;;;;5094041;28;20033;-35
2023/01/13 12:29:58;;;;;;;3.78;1.50;;;9.30;99.90;;;;;;5093118;28;20375;-34
2023/01/13 12:32:35;;;;;;;3.58;1.10;;;9.40;99.90;;;;;;5094118;28;20016;-35
2023/01/13 12:35:19;;;;;;;3.33;1.25;;;9.30;99.90;;;;;;5094096;28;20019;-34
2023/01/13 12:38:01;;;;;;;7.30;1.75;;;9.40;99.90;;;;;;5093167;28;20046;-35
2023/01/13 12:40:51;;;;;;;5.00;1.35;;;9.40;99.90;;;;;;5093991;28;20405;-35
2023/01/13 12:46:22;;;;;;;2.55;1.13;;;9.40;99.90;;;;;;5093361;28;20165;-34
2023/01/13 12:48:55;;;;;;;7.72;1.50;;;9.40;99.90;;;;;;5093971;28;20039;-35
2023/01/13 12:51:32;;;;;;;8.98;2.25;;;9.40;99.90;;;;;;5093578;28;20111;-35
2023/01/13 12:54:00;;;;;;;30.52;3.58;;;9.40;99.90;;;;;;5092645;28;20073;-35
2023/01/13 12:56:41;;;;;;;57.88;4.88;;;9.40;99.90;;;;;;5093500;28;20028;-34
2023/01/13 12:59:15;;;;;;;29.42;3.60;;;9.40;99.90;;;;;;5093493;28;20111;-34
2023/01/13 13:01:43;;;;;;;18.95;3.10;;;9.40;99.90;;;;;;5092338;28;20420;-34
2023/01/13 13:04:13;;;;;;;13.10;3.10;;;9.40;99.90;;;;;;5092451;28;20390;-35
2023/01/13 13:06:44;;;;;;;11.77;3.05;;;9.40;99.90;;;;;;5092175;28;20076;-35
2023/01/13 13:09:50;;;;;;;11.77;2.80;;;9.40;99.90;;;;;;5092367;28;20036;-35
2023/01/13 13:15:36;;;;;;;12.20;2.83;;;9.40;99.90;;;;;;5069926;28;20031;-34
2023/01/13 13:18:20;;;;;;;13.90;2.63;;;9.40;99.90;;;;;;5088561;28;20109;-35
2023/01/13 13:21:05;;;;;;;11.40;2.28;;;9.40;99.90;;;;;;5092716;28;20027;-35
2023/01/13 13:23:52;;;;;;;12.40;2.80;;;9.40;99.90;;;;;;5093612;28;20025;-35
2023/01/13 13:26:22;;;;;;;9.65;2.42;;;9.40;99.90;;;;;;5092783;28;20046;-35
2023/01/13 13:29:25;;;;;;;10.70;2.50;;;9.40;99.90;;;;;;5091953;28;20041;-35
2023/01/13 13:31:53;;;;;;;9.13;1.95;;;9.40;99.90;;;;;;5092844;28;20028;-35
2023/01/13 13:34:40;;;;;;;7.78;1.98;;;9.40;99.90;;;;;;5092183;28;20023;-35
2023/01/13 13:48:54;;;;;;;8.93;1.95;;;9.40;99.90;;;;;;5092004;28;20117;-34
2023/01/13 13:51:27;;;;;;;12.38;2.25;;;9.40;99.90;;;;;;5093073;28;20469;-34
2023/01/13 13:53:54;;;;;;;10.68;2.05;;;9.40;99.90;;;;;;5092683;28;20032;-33
2023/01/13 13:56:25;;;;;;;9.57;2.20;;;9.40;99.90;;;;;;5092520;28;20019;-34
2023/01/13 13:58:52;;;;;;;6.47;2.30;;;9.40;99.90;;;;;;5091701;28;20073;-34
2023/01/13 14:01:33;;;;;;;13.30;2.63;;;9.40;99.90;;;;;;5091655;28;20064;-34
2023/01/13 14:04:29;;;;;;;12.02;1.92;;;9.40;99.90;;;;;;5091544;28;20043;-33
2023/01/13 14:06:57;;;;;;;11.18;2.40;;;9.40;99.90;;;;;;5091467;28;20033;-34
2023/01/13 14:09:25;;;;;;;5.53;1.45;;;9.30;99.90;;;;;;5092913;28;20028;-34
2023/01/13 14:12:03;;;;;;;5.25;1.90;;;9.40;99.90;;;;;;5092740;28;20028;-34
2023/01/13 14:14:29;;;;;;;7.88;1.77;;;9.30;99.90;;;;;;5091472;28;20040;-35
2023/01/13 14:16:55;;;;;;;7.28;1.65;;;9.30;99.90;;;;;;5091082;28;20081;-35
2023/01/13 14:19:30;;;;;;;6.25;1.75;;;9.30;99.90;;;;;;5091863;28;20029;-34
2023/01/13 14:21:58;;;;;;;7.45;1.50;;;9.40;99.90;;;;;;5092076;28;20385;-35